Time;durP1;ratioP1;P1;durP2;ratioP2;P2;SDS_P1;SDS_P2;PMS_P1;PMS_P2;Temp;Humidity;BMP_temperature;BMP_pressure;BME280_temperature;BME280_humidity;BME280_pressure;Samples;Min_cycle;Max_cycle;Signal;HPM_P1;HPM_P2
2022/10/04 00:01:52;;;;;;;5.93;2.22;;;;;;;12.33;60.18;99619.09;4987601;28;20313;-71
2022/10/04 00:04:25;;;;;;;3.03;1.67;;;;;;;12.09;59.97;99602.72;4987529;28;20321;-71
2022/10/04 00:07:00;;;;;;;4.97;2.13;;;;;;;12.20;60.16;99616.28;4987421;28;20050;-71
2022/10/04 00:09:35;;;;;;;5.57;1.70;;;;;;;12.25;60.37;99613.34;4987432;28;20050;-72
2022/10/04 00:12:04;;;;;;;3.75;1.85;;;;;;;12.28;60.62;99610.53;4986676;28;20059;-71
2022/10/04 00:14:36;;;;;;;4.28;1.95;;;;;;;12.29;60.17;99612.22;4987157;28;20226;-72
2022/10/04 00:17:10;;;;;;;3.97;2.13;;;;;;;12.24;60.68;99612.50;4987087;28;20345;-71
2022/10/04 00:19:43;;;;;;;3.45;2.05;;;;;;;12.22;60.80;99614.41;4987053;28;20217;-71
2022/10/04 00:22:22;;;;;;;3.13;1.80;;;;;;;11.88;60.61;99554.31;4986939;28;20050;-71
2022/10/04 00:25:21;;;;;;;5.15;2.00;;;;;;;12.14;61.18;99613.94;4987323;28;20332;-71
2022/10/04 00:30:38;;;;;;;6.25;1.90;;;;;;;12.13;61.25;99605.13;4986672;26;20047;-71
2022/10/04 00:33:05;;;;;;;4.72;2.05;;;;;;;12.14;60.87;99604.16;4987131;28;20054;-72
2022/10/04 00:35:49;;;;;;;7.18;2.30;;;;;;;12.11;61.33;99603.50;4986764;28;20054;-72
2022/10/04 00:38:24;;;;;;;4.70;2.08;;;;;;;12.08;61.25;99601.00;4987152;28;20336;-72
2022/10/04 00:41:01;;;;;;;4.28;2.33;;;;;;;12.11;61.75;99608.81;4986970;28;20209;-72
2022/10/04 00:43:32;;;;;;;3.88;1.90;;;;;;;12.08;61.60;99601.88;4986982;28;20344;-72
2022/10/04 00:46:04;;;;;;;3.25;2.28;;;;;;;12.11;61.46;99601.69;4986703;28;20314;-72
2022/10/04 00:48:42;;;;;;;3.72;2.50;;;;;;;12.15;61.32;99608.53;4986644;28;20061;-72
2022/10/04 00:51:17;;;;;;;5.00;2.15;;;;;;;12.10;61.34;99604.44;4986806;28;20066;-72
2022/10/04 00:53:53;;;;;;;3.20;2.20;;;;;;;12.09;61.39;99600.06;4986669;28;20066;-72
2022/10/04 00:56:28;;;;;;;4.47;2.50;;;;;;;12.13;61.41;99605.13;4987239;28;20213;-72
2022/10/04 00:59:22;;;;;;;6.47;2.10;;;;;;;12.07;61.60;99602.81;4986843;28;20059;-72
2022/10/04 01:01:54;;;;;;;3.78;1.88;;;;;;;12.13;61.69;99599.81;4986643;28;20066;-72
2022/10/04 01:04:31;;;;;;;2.80;1.90;;;;;;;12.12;61.38;99599.88;4986600;28;20218;-72
2022/10/04 01:07:02;;;;;;;4.57;2.25;;;;;;;12.08;61.50;99601.00;4986545;28;20059;-72
2022/10/04 01:09:33;;;;;;;4.13;2.30;;;;;;;12.07;61.44;99599.28;4986579;28;20058;-72
2022/10/04 01:12:06;;;;;;;3.60;1.75;;;;;;;12.09;61.51;99600.91;4986430;28;20190;-72
2022/10/04 01:14:47;;;;;;;6.38;2.03;;;;;;;12.05;61.18;99594.06;4986477;28;20058;-72
2022/10/04 01:17:14;;;;;;;3.42;2.00;;;;;;;12.06;61.13;99589.63;5567745;23;20090;-72
2022/10/04 01:19:51;;;;;;;4.30;2.53;;;;;;;11.57;61.25;99526.00;4967122;28;20059;-71
2022/10/04 01:22:35;;;;;;;4.60;2.60;;;;;;;12.12;61.37;99590.13;4966750;28;20059;-72
2022/10/04 01:25:04;;;;;;;7.32;2.70;;;;;;;12.10;61.12;99589.34;4967047;28;20059;-71
2022/10/04 01:27:34;;;;;;;4.68;2.22;;;;;;;11.84;60.93;99543.00;4967141;28;20059;-72
2022/10/04 01:30:06;;;;;;;7.07;2.30;;;;;;;12.10;60.80;99588.50;4966861;28;20055;-71
2022/10/04 01:32:33;;;;;;;4.07;2.25;;;;;;;12.05;61.13;99588.75;4966852;28;20059;-71
2022/10/04 01:35:01;;;;;;;6.15;2.25;;;;;;;12.06;60.93;99582.50;4966653;28;20344;-71
2022/10/04 01:37:29;;;;;;;4.22;3.00;;;;;;;12.09;60.93;99584.13;4966663;28;20156;-71
2022/10/04 01:39:57;;;;;;;5.30;2.30;;;;;;;12.09;61.29;99578.81;4966865;28;20314;-71
2022/10/04 01:42:32;;;;;;;8.52;2.75;;;;;;;12.07;61.02;99584.22;4966918;28;20341;-70
2022/10/04 01:45:09;;;;;;;4.70;2.25;;;;;;;12.08;60.78;99591.25;4966573;28;20218;-72
2022/10/04 01:47:41;;;;;;;4.18;2.05;;;;;;;12.03;61.19;99576.50;4966837;28;20051;-72
2022/10/04 01:50:13;;;;;;;6.30;2.42;;;;;;;12.04;61.13;99575.56;4966575;28;20226;-71
2022/10/04 01:52:44;;;;;;;4.57;2.15;;;;;;;12.04;61.07;99575.56;4966727;28;20055;-72
2022/10/04 01:55:15;;;;;;;4.97;2.53;;;;;;;11.96;61.53;99567.16;4966413;28;20066;-72
2022/10/04 01:57:49;;;;;;;5.35;2.45;;;;;;;11.97;61.60;99567.06;4966588;28;20314;-72
2022/10/04 02:00:17;;;;;;;3.05;2.10;;;;;;;11.95;61.57;99555.66;4966486;28;20059;-72
2022/10/04 02:02:51;;;;;;;4.97;2.42;;;;;;;11.97;61.48;99563.56;4966342;28;20055;-72
2022/10/04 02:05:28;;;;;;;4.15;2.58;;;;;;;11.92;61.59;99560.31;4966691;28;20059;-72
2022/10/04 02:07:57;;;;;;;4.40;2.65;;;;;;;11.74;61.47;99530.34;4966740;28;20322;-72
2022/10/04 02:10:26;;;;;;;5.60;2.90;;;;;;;11.93;61.52;99546.06;4966768;28;20062;-72
2022/10/04 02:12:55;;;;;;;3.58;2.05;;;;;;;11.91;61.62;99548.81;4966200;28;20330;-71
2022/10/04 02:15:25;;;;;;;3.28;2.03;;;;;;;11.87;61.56;99547.28;4966500;28;20070;-71
2022/10/04 02:17:56;;;;;;;3.53;1.98;;;;;;;11.90;61.93;99541.81;4966174;28;20062;-71
2022/10/04 02:20:26;;;;;;;8.32;3.70;;;;;;;12.00;62.79;99540.34;4966522;28;20059;-70
2022/10/04 02:22:58;;;;;;;4.25;3.20;;;;;;;12.06;62.54;99540.00;4966376;28;20226;-71
2022/10/04 02:25:27;;;;;;;6.63;3.80;;;;;;;11.89;62.37;99497.59;4966155;28;20066;-71
2022/10/04 02:27:55;;;;;;;3.83;2.75;;;;;;;12.13;62.18;99543.16;4966889;28;20066;-71
2022/10/04 02:30:24;;;;;;;5.40;3.00;;;;;;;12.17;62.21;99542.06;4966100;28;20059;-71
2022/10/04 02:32:59;;;;;;;4.47;2.58;;;;;;;12.03;62.16;99518.06;4966359;28;20055;-72
2022/10/04 02:35:29;;;;;;;4.15;2.60;;;;;;;12.11;61.26;99547.69;4968420;28;20059;-71
2022/10/04 02:38:12;;;;;;;15.38;3.20;;;;;;;12.06;61.31;99541.81;4969844;28;20066;-72
2022/10/04 02:40:49;;;;;;;3.65;2.40;;;;;;;12.09;61.84;99542.47;4969802;28;20063;-72
2022/10/04 02:43:22;;;;;;;4.45;2.30;;;;;;;12.10;61.55;99549.50;4969817;28;20081;-72
2022/10/04 02:45:54;;;;;;;3.60;1.92;;;;;;;12.05;61.21;99558.69;4969717;28;20055;-72
2022/10/04 02:48:36;;;;;;;4.25;2.10;;;;;;;12.08;61.32;99558.50;4969752;28;20055;-72
2022/10/04 02:51:15;;;;;;;3.47;2.10;;;;;;;12.07;61.25;99570.06;4969402;28;20318;-71
2022/10/04 02:53:50;;;;;;;5.13;2.10;;;;;;;12.07;61.39;99570.94;4969205;28;20059;-72
2022/10/04 02:56:21;;;;;;;3.47;2.05;;;;;;;12.05;61.16;99566.66;4969282;28;20054;-71
2022/10/04 02:58:48;;;;;;;3.72;2.20;;;;;;;12.00;61.55;99574.00;4969538;28;20055;-72
2022/10/04 03:01:25;;;;;;;3.33;1.92;;;;;;;12.01;61.25;99581.06;4969495;28;20062;-72
2022/10/04 03:03:54;;;;;;;3.60;2.05;;;;;;;11.97;61.42;99556.44;4969533;28;20059;-72
2022/10/04 03:06:28;;;;;;;2.92;1.90;;;;;;;11.99;61.44;99551.91;4969315;28;20074;-71
2022/10/04 03:08:58;;;;;;;3.65;2.30;;;;;;;12.02;61.23;99556.22;4969394;28;20059;-72
2022/10/04 03:11:30;;;;;;;4.28;2.53;;;;;;;12.01;61.20;99555.34;4969094;28;20233;-72
2022/10/04 03:14:02;;;;;;;5.47;2.38;;;;;;;11.97;61.21;99563.56;4969180;28;20055;-71
2022/10/04 03:16:36;;;;;;;5.72;2.33;;;;;;;11.94;61.04;99564.59;4969252;28;20326;-72
2022/10/04 03:19:04;;;;;;;4.35;2.70;;;;;;;11.96;61.21;99564.50;4968819;28;20070;-72
2022/10/04 03:21:33;;;;;;;4.68;2.00;;;;;;;11.96;61.43;99564.50;4969144;28;20059;-72
2022/10/04 03:24:03;;;;;;;3.22;2.20;;;;;;;11.89;61.32;99570.16;4969157;28;20055;-72
2022/10/04 03:26:36;;;;;;;4.57;2.63;;;;;;;11.86;61.32;99562.38;4969052;28;20059;-72
2022/10/04 03:29:08;;;;;;;4.88;2.65;;;;;;;11.86;61.37;99564.16;4968956;28;20210;-72
2022/10/04 03:31:40;;;;;;;4.43;2.45;;;;;;;11.84;61.50;99558.09;4968678;28;20059;-71
2022/10/04 03:34:13;;;;;;;3.33;1.98;;;;;;;11.78;61.63;99559.28;4968851;28;20066;-72
2022/10/04 03:36:41;;;;;;;3.28;2.13;;;;;;;11.77;61.74;99556.72;4968818;28;20059;-71
2022/10/04 03:39:11;;;;;;;4.13;2.42;;;;;;;11.77;61.84;99564.69;4968472;28;20059;-71
2022/10/04 03:41:41;;;;;;;5.75;2.80;;;;;;;11.75;62.09;99556.81;4968766;28;20062;-72
2022/10/04 03:44:16;;;;;;;3.92;2.00;;;;;;;11.80;61.87;99556.53;4968676;28;20065;-71
2022/10/04 03:46:44;;;;;;;3.90;2.63;;;;;;;11.73;61.82;99556.03;4968609;28;20059;-72
2022/10/04 03:49:16;;;;;;;6.05;2.40;;;;;;;11.79;61.94;99555.69;4968240;28;20059;-72
2022/10/04 03:51:48;;;;;;;3.40;2.10;;;;;;;11.77;61.98;99562.88;4968490;28;20054;-72
2022/10/04 03:54:19;;;;;;;3.25;2.08;;;;;;;11.72;61.83;99561.44;4968442;28;20070;-72
2022/10/04 03:56:48;;;;;;;5.25;2.40;;;;;;;11.68;62.15;99566.06;4968373;28;20059;-72
2022/10/04 03:59:18;;;;;;;4.30;2.80;;;;;;;11.23;62.09;99487.22;4968396;28;20062;-72
2022/10/04 04:01:49;;;;;;;3.58;2.13;;;;;;;11.25;61.95;99485.34;4968127;28;20055;-72
2022/10/04 04:04:22;;;;;;;4.63;2.28;;;;;;;11.71;62.00;99563.25;4968108;28;20060;-73
2022/10/04 04:07:00;;;;;;;16.60;2.53;;;;;;;11.69;62.35;99562.47;4967056;29;20051;-72
2022/10/04 04:09:38;;;;;;;9.93;2.97;;;;;;;11.69;62.36;99554.50;4968243;28;20310;-72
2022/10/04 04:12:13;;;;;;;4.70;2.38;;;;;;;11.64;62.32;99561.00;4968016;28;20130;-72
2022/10/04 04:14:49;;;;;;;;;;;;;;;11.45;62.75;99554.06;4968343;28;20382;-72
2022/10/04 04:17:30;;;;;;;3.53;2.00;;;;;;;11.50;63.03;99561.78;4967862;28;19918;-72
2022/10/04 04:19:59;;;;;;;5.22;3.13;;;;;;;11.53;62.70;99553.66;4967905;28;20102;-72
2022/10/04 04:22:30;;;;;;;3.60;2.47;;;;;;;11.54;62.75;99556.22;4967515;28;20110;-72
2022/10/04 04:25:00;;;;;;;6.03;2.22;;;;;;;11.52;62.82;99565.22;4967570;28;20115;-72
2022/10/04 04:27:33;;;;;;;4.53;2.30;;;;;;;11.55;62.87;99562.38;4967520;28;20087;-72
2022/10/04 04:30:02;;;;;;;4.05;2.75;;;;;;;11.55;62.85;99562.38;4967772;28;20195;-72
2022/10/04 04:32:35;;;;;;;5.70;3.03;;;;;;;11.57;62.70;99560.50;4967718;28;20055;-72
2022/10/04 04:35:07;;;;;;;5.55;2.35;;;;;;;11.58;62.55;99559.56;4967566;28;20375;-72
2022/10/04 04:37:35;;;;;;;5.60;2.05;;;;;;;11.47;62.86;99578.75;4967330;28;20059;-72
2022/10/04 04:40:18;;;;;;;4.60;2.38;;;;;;;11.53;62.95;99566.91;4962774;28;49282;-72
2022/10/04 04:42:49;;;;;;;5.15;2.88;;;;;;;11.52;63.04;99573.19;4965617;28;48350;-72
2022/10/04 04:45:21;;;;;;;4.28;2.75;;;;;;;11.52;62.95;99570.50;4967275;28;20125;-73
2022/10/04 04:47:50;;;;;;;4.47;2.30;;;;;;;11.32;63.27;99571.63;4967358;28;20059;-72
2022/10/04 04:50:19;;;;;;;4.93;2.50;;;;;;;11.49;62.85;99571.53;4967541;28;20255;-71
2022/10/04 04:52:50;;;;;;;5.10;2.40;;;;;;;11.48;62.90;99574.28;4967332;28;20122;-71
2022/10/04 04:55:20;;;;;;;4.97;2.83;;;;;;;11.50;62.99;99575.06;4967368;28;20110;-72
2022/10/04 04:57:49;;;;;;;5.57;2.67;;;;;;;11.42;63.14;99556.03;4966854;28;20110;-71
2022/10/04 05:00:19;;;;;;;5.57;2.53;;;;;;;11.50;62.89;99583.88;4967432;28;20262;-71
2022/10/04 05:02:54;;;;;;;8.35;2.80;;;;;;;11.15;63.17;99531.88;4967103;28;20117;-71
2022/10/04 05:05:25;;;;;;;7.40;2.28;;;;;;;11.52;62.94;99589.09;4967333;28;20122;-71
2022/10/04 05:08:11;;;;;;;4.45;2.35;;;;;;;11.49;62.99;99594.56;4967335;28;20058;-71
2022/10/04 05:10:42;;;;;;;3.60;2.25;;;;;;;11.47;63.20;99602.63;4967022;28;20054;-71
2022/10/04 05:13:12;;;;;;;4.38;2.78;;;;;;;11.52;63.06;99595.25;4967287;28;20230;-71
2022/10/04 05:15:42;;;;;;;6.70;2.65;;;;;;;11.49;63.33;99597.22;4967171;28;20054;-72
2022/10/04 05:18:28;;;;;;;4.30;2.42;;;;;;;11.50;63.28;99601.59;4966827;28;20238;-72
2022/10/04 05:20:58;;;;;;;3.45;2.28;;;;;;;11.50;62.95;99655.53;4967150;28;20130;-71
2022/10/04 05:23:26;;;;;;;4.95;2.78;;;;;;;11.46;63.31;99608.88;4967137;28;20055;-71
2022/10/04 05:25:53;;;;;;;4.90;3.00;;;;;;;11.47;63.19;99599.13;4967073;28;20217;-71
2022/10/04 05:28:22;;;;;;;4.25;2.20;;;;;;;11.50;63.26;99604.25;4967043;28;20110;-71
2022/10/04 05:31:08;;;;;;;4.22;2.70;;;;;;;11.43;63.40;99606.38;4966760;28;20067;-71
2022/10/04 05:33:45;;;;;;;3.72;2.65;;;;;;;11.43;63.61;99600.22;4966969;28;20059;-71
2022/10/04 05:36:45;;;;;;;4.80;3.75;;;;;;;11.37;63.39;99597.91;4966926;28;20055;-72
2022/10/04 05:39:22;;;;;;;3.15;2.17;;;;;;;8.97;63.37;99188.56;4966465;28;20055;-71
2022/10/04 05:41:57;;;;;;;4.40;2.70;;;;;;;11.46;63.59;99610.66;4967028;28;20258;-71
2022/10/04 05:44:28;;;;;;;4.10;2.60;;;;;;;11.51;63.25;99622.75;4966845;28;20055;-71
2022/10/04 05:46:57;;;;;;;7.95;3.15;;;;;;;11.49;63.24;99631.72;4966852;28;20270;-71
2022/10/04 05:49:27;;;;;;;6.20;2.90;;;;;;;11.50;63.35;99636.97;4966622;28;20106;-71
2022/10/04 05:51:59;;;;;;;3.38;2.30;;;;;;;11.42;63.74;99639.16;4966726;28;20059;-71
2022/10/04 05:54:30;;;;;;;4.40;2.72;;;;;;;11.46;63.43;99642.50;4966505;28;20115;-71
2022/10/04 05:57:19;;;;;;;4.38;2.00;;;;;;;11.50;63.48;99636.09;4966550;28;20063;-71
2022/10/04 06:00:11;;;;;;;5.22;2.35;;;;;;;11.46;63.68;99645.16;4966829;28;20118;-71
2022/10/04 06:03:00;;;;;;;3.55;2.25;;;;;;;11.46;63.68;99639.88;4966779;28;20059;-71
2022/10/04 06:05:39;;;;;;;4.55;2.75;;;;;;;11.47;63.62;99642.44;4963674;29;20176;-71
2022/10/04 06:08:14;;;;;;;5.55;2.95;;;;;;;11.49;63.63;99645.00;4966481;28;20059;-71
2022/10/04 06:10:53;;;;;;;5.45;3.00;;;;;;;11.48;63.97;99652.09;4969219;28;20133;-71
2022/10/04 06:13:35;;;;;;;4.50;2.28;;;;;;;11.49;63.84;99653.81;4970059;28;20067;-71
2022/10/04 06:16:18;;;;;;;3.40;2.08;;;;;;;11.52;63.80;99655.44;4969954;28;20055;-72
2022/10/04 06:19:06;;;;;;;5.80;2.83;;;;;;;11.59;63.63;99659.50;4969836;28;20196;-71
2022/10/04 06:21:41;;;;;;;3.70;2.30;;;;;;;11.51;63.91;99659.06;4970230;28;20067;-71
2022/10/04 06:24:13;;;;;;;4.68;2.33;;;;;;;11.46;63.84;99661.94;4970211;28;20087;-71
2022/10/04 06:26:44;;;;;;;4.22;2.15;;;;;;;11.48;63.66;99667.19;4969855;28;20103;-71
2022/10/04 06:29:16;;;;;;;4.22;2.25;;;;;;;11.52;63.94;99672.25;4969901;28;20106;-71
2022/10/04 06:32:11;;;;;;;4.88;2.38;;;;;;;11.57;63.63;99672.00;4969697;28;20080;-71
2022/10/04 06:35:06;;;;;;;4.88;2.35;;;;;;;11.34;63.92;99630.78;4969691;28;20113;-71
2022/10/04 06:38:12;;;;;;;7.15;2.80;;;;;;;11.52;63.98;99668.72;4969632;28;20059;-72
2022/10/04 06:40:53;;;;;;;;;;;;;;;11.40;64.55;99670.25;4965620;28;20114;-71
2022/10/04 06:43:38;;;;;;;4.72;2.53;;;;;;;11.47;64.34;99682.25;4969586;28;19969;-71
2022/10/04 06:46:15;;;;;;;5.30;2.40;;;;;;;11.50;64.29;99686.53;4969800;28;20059;-71
2022/10/04 06:49:14;;;;;;;3.55;2.60;;;;;;;11.55;63.94;99680.03;4969749;28;20306;-71
2022/10/04 06:51:58;;;;;;;4.53;2.85;;;;;;;11.60;63.90;99687.75;4969224;28;20067;-71
2022/10/04 06:54:40;;;;;;;5.25;2.78;;;;;;;11.53;64.35;99692.53;4969418;28;20203;-72
2022/10/04 06:57:40;;;;;;;5.57;2.67;;;;;;;11.55;64.54;99681.84;4969343;28;20055;-72
2022/10/04 07:00:17;;;;;;;4.38;2.60;;;;;;;11.54;64.45;99698.69;4965656;28;20059;-72
2022/10/04 07:02:55;;;;;;;7.70;2.80;;;;;;;11.56;64.39;99691.50;4969116;28;20070;-71
2022/10/04 07:05:32;;;;;;;4.20;2.65;;;;;;;11.64;64.22;99694.59;4969404;28;20110;-72
2022/10/04 07:08:11;;;;;;;5.07;2.90;;;;;;;11.65;64.05;99695.47;4969372;28;20258;-71
2022/10/04 07:10:47;;;;;;;4.43;2.78;;;;;;;11.63;64.26;99700.84;4969372;28;20055;-71
2022/10/04 07:13:33;;;;;;;4.63;2.88;;;;;;;11.66;64.14;99713.09;4969035;28;20127;-72
2022/10/04 07:16:05;;;;;;;7.15;3.20;;;;;;;11.67;63.89;99710.38;4965951;29;20102;-71
2022/10/04 07:18:37;;;;;;;4.70;2.45;;;;;;;10.26;64.02;99469.47;4968879;28;20118;-72
2022/10/04 07:21:11;;;;;;;3.47;2.50;;;;;;;11.68;64.27;99704.13;4968525;28;20055;-71
2022/10/04 07:23:47;;;;;;;5.25;2.65;;;;;;;11.67;64.34;99721.00;4968791;28;20377;-72
2022/10/04 07:26:23;;;;;;;4.93;2.42;;;;;;;11.71;64.00;99711.06;4969125;28;20191;-71
2022/10/04 07:31:41;;;;;;;5.20;2.75;;;;;;;11.76;64.01;99711.66;4968812;29;20090;-72
2022/10/04 07:34:11;;;;;;;5.68;2.72;;;;;;;11.75;64.10;99713.47;4968303;28;20059;-71
2022/10/04 07:36:45;;;;;;;4.70;2.42;;;;;;;11.80;63.92;99713.22;4969095;28;20102;-71
2022/10/04 07:39:15;;;;;;;4.05;2.58;;;;;;;11.84;63.97;99715.63;4968530;28;20118;-71
2022/10/04 07:41:52;;;;;;;4.80;2.83;;;;;;;11.91;63.86;99729.44;4968444;28;20115;-72
2022/10/04 07:44:34;;;;;;;4.25;3.17;;;;;;;11.87;63.66;99723.44;4968572;28;20349;-72
2022/10/04 07:47:09;;;;;;;3.00;2.03;;;;;;;11.88;63.83;99737.56;4968619;28;20055;-71
2022/10/04 07:49:39;;;;;;;4.82;3.13;;;;;;;10.78;63.25;99525.91;4968654;28;20091;-71
2022/10/04 07:52:30;;;;;;;4.72;2.38;;;;;;;12.06;63.57;99733.94;4968552;28;20188;-71
2022/10/04 07:55:08;;;;;;;6.72;2.40;;;;;;;11.10;62.87;99563.97;4968329;28;20106;-72
2022/10/04 07:57:47;;;;;;;3.97;2.38;;;;;;;11.98;62.97;99698.94;4968342;28;20059;-73
2022/10/04 08:00:20;;;;;;;5.03;2.63;;;;;;;12.23;62.92;99726.84;4968577;28;20057;-70
2022/10/04 08:03:07;;;;;;;7.32;2.58;;;;;;;12.31;62.65;99727.28;4968891;28;20067;-71
2022/10/04 08:05:37;;;;;;;4.05;2.30;;;;;;;12.31;62.71;99724.63;4968372;28;20094;-71
2022/10/04 08:08:24;;;;;;;5.15;3.00;;;;;;;12.34;62.17;99727.97;4968172;28;20066;-71
2022/10/04 08:11:04;;;;;;;6.30;2.38;;;;;;;12.32;62.53;99726.34;4967792;28;20059;-71
2022/10/04 08:13:40;;;;;;;3.30;2.20;;;;;;;12.39;62.29;99720.59;4967981;28;20067;-71
2022/10/04 08:16:20;;;;;;;5.05;2.72;;;;;;;12.43;62.45;99719.47;4968036;28;20310;-71
2022/10/04 08:19:00;;;;;;;7.55;2.92;;;;;;;12.43;62.49;99723.94;4967617;28;20271;-71
2022/10/04 08:21:37;;;;;;;4.10;2.20;;;;;;;12.45;62.38;99736.19;4967690;28;20059;-71
2022/10/04 08:24:20;;;;;;;5.93;2.75;;;;;;;12.47;62.08;99723.66;4967874;28;20255;-71
2022/10/04 08:27:07;;;;;;;4.22;2.25;;;;;;;12.46;61.83;99721.09;4967532;28;20074;-71
2022/10/04 08:29:53;;;;;;;4.03;2.63;;;;;;;12.52;61.87;99726.91;4967465;28;20102;-71
2022/10/04 08:32:31;;;;;;;4.78;2.47;;;;;;;12.55;61.84;99719.72;4967076;28;20059;-71
2022/10/04 08:35:26;;;;;;;3.92;2.53;;;;;;;12.59;61.56;99726.56;4967672;28;20247;-71
2022/10/04 08:38:09;;;;;;;4.82;2.13;;;;;;;11.89;61.73;99615.31;4968139;28;20055;-71
2022/10/04 08:41:13;;;;;;;3.85;2.17;;;;;;;12.49;61.56;99711.13;4967203;28;20117;-71
2022/10/04 08:44:22;;;;;;;4.40;2.20;;;;;;;12.62;61.65;99732.56;4935797;28;20247;-71
2022/10/04 08:47:22;;;;;;;6.45;2.28;;;;;;;12.63;61.69;99728.09;4967624;28;20051;-71
2022/10/04 08:50:20;;;;;;;7.50;3.40;;;;;;;12.67;61.85;99734.97;4954635;28;20118;-71
2022/10/04 08:53:36;;;;;;;4.65;2.15;;;;;;;12.67;61.87;99735.81;4967290;28;20067;-71
2022/10/04 08:56:12;;;;;;;5.10;2.22;;;;;;;12.71;61.76;99736.50;4967102;28;20091;-71
2022/10/04 08:59:18;;;;;;;2.80;1.80;;;;;;;12.77;61.52;99731.69;4967174;28;20055;-71
2022/10/04 09:01:57;;;;;;;4.82;2.42;;;;;;;12.73;61.38;99729.28;4967220;28;20114;-71
2022/10/04 09:04:56;;;;;;;4.10;2.40;;;;;;;12.80;61.59;99731.50;4967348;28;20263;-71
2022/10/04 09:08:04;;;;;;;4.95;2.30;;;;;;;12.81;61.47;99732.34;4967212;28;20058;-71
2022/10/04 09:10:51;;;;;;;5.38;2.30;;;;;;;12.85;61.24;99725.91;4967400;28;20067;-72
2022/10/04 09:13:34;;;;;;;4.03;2.80;;;;;;;12.88;61.41;99731.06;4966817;28;20067;-71
2022/10/04 09:16:18;;;;;;;5.28;2.83;;;;;;;12.96;61.45;99741.25;4967116;28;20106;-71
2022/10/04 09:18:51;;;;;;;6.30;2.85;;;;;;;12.95;61.16;99745.69;4966666;28;20127;-71
2022/10/04 09:21:28;;;;;;;4.68;2.60;;;;;;;13.03;61.54;99740.78;4967141;28;20067;-72
2022/10/04 09:24:28;;;;;;;4.88;2.65;;;;;;;13.08;61.50;99738.72;4967116;28;20106;-72
2022/10/04 09:27:04;;;;;;;4.85;2.72;;;;;;;13.09;61.10;99735.09;4967032;28;20055;-71
2022/10/04 09:29:54;;;;;;;4.28;2.60;;;;;;;12.11;60.91;99553.00;4966693;28;20117;-71
2022/10/04 09:32:45;;;;;;;5.35;2.08;;;;;;;13.19;61.25;99732.75;4967064;28;20059;-71
2022/10/04 09:35:30;;;;;;;5.35;2.22;;;;;;;13.22;60.72;99742.34;4966981;28;20059;-71
2022/10/04 09:38:18;;;;;;;3.72;2.40;;;;;;;13.24;60.52;99737.81;4966838;28;20055;-71
2022/10/04 09:41:33;;;;;;;5.57;2.50;;;;;;;13.30;60.91;99751.59;4966772;28;20059;-71
2022/10/04 09:44:32;;;;;;;4.72;2.28;;;;;;;13.35;61.16;99744.19;4954382;28;20219;-71
2022/10/04 09:47:20;;;;;;;5.28;2.17;;;;;;;13.39;60.92;99744.84;4970297;28;20063;-71
2022/10/04 09:50:24;;;;;;;7.00;2.20;;;;;;;13.47;60.47;99746.13;4970816;28;20066;-71
2022/10/04 09:52:59;;;;;;;4.15;2.08;;;;;;;13.17;60.76;99694.72;4970711;28;20086;-71
2022/10/04 09:55:42;;;;;;;3.78;2.05;;;;;;;13.60;59.89;99748.06;4970692;28;20067;-71
2022/10/04 09:58:40;;;;;;;4.03;2.30;;;;;;;13.63;60.03;99735.41;4970515;28;20094;-71
2022/10/04 10:01:16;;;;;;;3.58;2.25;;;;;;;13.83;59.47;99746.63;4970578;28;20055;-71
2022/10/04 10:04:10;;;;;;;4.43;2.53;;;;;;;13.98;59.60;99743.88;4970592;28;20067;-71
2022/10/04 10:07:09;;;;;;;6.25;2.47;;;;;;;14.12;58.96;99751.00;4969975;28;20106;-71
2022/10/04 10:15:59;;;;;;;5.65;2.20;;;;;;;14.38;58.43;99755.50;4970206;29;20090;-71
2022/10/04 10:18:39;;;;;;;5.05;2.38;;;;;;;14.44;57.95;99743.59;4969795;28;20055;-71
2022/10/04 10:21:24;;;;;;;4.97;2.42;;;;;;;14.76;58.01;99757.56;4969927;28;20101;-71
2022/10/04 10:24:07;;;;;;;3.67;2.35;;;;;;;15.00;57.25;99755.91;4970212;28;20102;-72
2022/10/04 10:26:54;;;;;;;4.28;2.10;;;;;;;15.18;55.88;99761.84;4969515;28;20056;-71
2022/10/04 10:30:09;;;;;;;3.47;2.10;;;;;;;15.32;55.78;99744.88;4969777;28;20067;-71
2022/10/04 10:33:03;;;;;;;5.00;2.53;;;;;;;15.46;55.78;99758.13;4969647;28;20063;-71
2022/10/04 10:36:24;;;;;;;8.77;2.55;;;;;;;15.37;54.76;99801.50;4969823;28;20463;-72
2022/10/04 10:39:10;;;;;;;4.43;2.00;;;;;;;15.30;54.92;99766.34;4913350;28;20059;-72
2022/10/04 10:41:51;;;;;;;4.43;2.70;;;;;;;15.26;55.24;99761.31;4969481;28;20114;-72
2022/10/04 10:44:37;;;;;;;4.80;2.20;;;;;;;15.26;55.58;99761.31;4969662;28;20096;-72
2022/10/04 10:47:28;;;;;;;3.20;1.90;;;;;;;15.21;54.97;99758.09;4969707;28;20062;-72
2022/10/04 10:50:07;;;;;;;4.32;2.47;;;;;;;15.23;56.12;99754.38;4969372;28;20118;-72
2022/10/04 10:53:19;;;;;;;3.22;2.00;;;;;;;15.23;55.26;99759.72;4969711;28;20059;-72
2022/10/04 10:56:32;;;;;;;4.93;2.17;;;;;;;15.29;55.78;99753.94;4968634;28;20351;-72
2022/10/04 10:59:35;;;;;;;3.20;2.30;;;;;;;15.46;55.63;99757.28;4969295;28;20062;-71
2022/10/04 11:03:03;;;;;;;5.55;2.63;;;;;;;15.63;56.00;99765.84;4968907;28;20063;-71
2022/10/04 11:06:03;;;;;;;4.55;2.17;;;;;;;15.76;55.10;99757.00;4948360;28;20063;-72
2022/10/04 11:09:12;;;;;;;3.50;1.85;;;;;;;15.70;54.92;99752.94;4969162;28;20055;-71
2022/10/04 11:12:12;;;;;;;3.97;1.83;;;;;;;14.51;54.74;99536.88;4922793;28;20114;-72
2022/10/04 11:15:25;;;;;;;5.53;2.58;;;;;;;15.75;54.45;99755.28;4968798;29;20102;-72
2022/10/04 11:18:14;;;;;;;5.30;2.28;;;;;;;15.69;54.74;99744.06;4941868;28;20118;-72
2022/10/04 11:21:07;;;;;;;4.65;2.95;;;;;;;15.84;54.59;99758.16;4969482;28;20062;-72
2022/10/04 11:24:13;;;;;;;4.28;2.00;;;;;;;15.91;54.03;99747.91;4968997;28;20119;-72
2022/10/04 11:27:09;;;;;;;3.75;1.83;;;;;;;15.92;54.33;99745.13;4968674;28;20063;-72
2022/10/04 11:29:58;;;;;;;3.95;2.35;;;;;;;15.96;53.47;99745.75;4962630;29;20111;-72
2022/10/04 11:33:11;;;;;;;5.63;2.22;;;;;;;16.04;53.51;99744.25;4968955;28;20113;-73
2022/10/04 11:36:16;;;;;;;4.72;2.38;;;;;;;16.07;53.40;99742.31;4968727;28;20059;-73
2022/10/04 11:38:57;;;;;;;4.10;1.97;;;;;;;16.02;52.93;99739.97;4968242;28;20059;-72
2022/10/04 11:41:39;;;;;;;6.80;2.08;;;;;;;15.87;52.84;99728.56;4968707;28;20059;-72
2022/10/04 11:44:40;;;;;;;3.42;2.15;;;;;;;15.94;52.55;99737.00;4968742;28;20059;-73
2022/10/04 11:47:22;;;;;;;3.15;2.42;;;;;;;15.91;54.10;99737.22;4964008;28;20102;-72
2022/10/04 11:50:03;;;;;;;11.80;3.85;;;;;;;15.92;53.59;99747.78;4968281;28;20059;-73
2022/10/04 11:53:13;;;;;;;4.93;2.13;;;;;;;15.84;53.55;99750.16;4968582;28;20114;-73
2022/10/04 11:56:03;;;;;;;4.28;2.00;;;;;;;15.77;53.30;99750.69;4968438;28;20067;-73
2022/10/04 11:58:55;;;;;;;3.22;1.92;;;;;;;15.78;53.78;99741.72;4968171;28;20192;-73
2022/10/04 12:01:49;;;;;;;3.60;2.00;;;;;;;15.92;53.40;99731.75;4961829;28;20322;-72
2022/10/04 12:04:35;;;;;;;6.82;2.50;;;;;;;16.04;53.54;99740.72;4968052;28;20059;-72
2022/10/04 12:07:23;;;;;;;4.28;2.08;;;;;;;16.10;52.60;99724.22;4967295;28;20307;-72
2022/10/04 12:10:01;;;;;;;3.10;1.83;;;;;;;15.94;52.62;99708.44;4968109;28;20067;-72
2022/10/04 12:12:58;;;;;;;4.13;2.17;;;;;;;16.02;52.29;99721.25;4968198;28;20066;-72
2022/10/04 12:15:41;;;;;;;3.15;2.08;;;;;;;15.75;53.41;99677.78;4967984;28;20055;-72
2022/10/04 12:18:38;;;;;;;3.92;2.10;;;;;;;16.15;53.96;99722.09;4967607;28;20058;-72
2022/10/04 12:21:27;;;;;;;5.60;1.95;;;;;;;16.29;53.23;99719.25;4968045;28;20055;-72
2022/10/04 12:24:15;;;;;;;3.67;1.90;;;;;;;16.35;52.87;99708.13;4968059;28;20066;-72
2022/10/04 12:27:28;;;;;;;5.18;2.63;;;;;;;16.29;52.29;99692.50;4967755;28;20059;-71
2022/10/04 12:30:14;;;;;;;3.30;2.13;;;;;;;16.08;52.30;99664.66;4967953;28;20063;-72
2022/10/04 12:32:54;;;;;;;4.78;2.17;;;;;;;16.61;52.02;99716.03;4967707;28;20055;-73
2022/10/04 12:35:30;;;;;;;5.15;2.45;;;;;;;16.51;51.69;99715.88;4967957;28;20059;-72
2022/10/04 12:38:25;;;;;;;3.20;2.00;;;;;;;16.05;51.22;99651.53;4967307;28;20063;-72
2022/10/04 12:41:00;;;;;;;3.67;2.20;;;;;;;16.03;51.48;99650.78;4951306;28;20067;-72
2022/10/04 12:43:51;;;;;;;4.13;2.05;;;;;;;16.59;51.45;99729.53;4967275;28;20067;-72
2022/10/04 12:46:32;;;;;;;2.83;1.85;;;;;;;16.55;51.71;99730.72;4967680;29;20108;-71
2022/10/04 12:49:13;;;;;;;6.47;2.83;;;;;;;5.56;51.86;97885.06;4967174;28;20078;-71